Time,TemperatureF,DewpointF,PressureIn,WindDirection,WindDirectionDegrees,WindSpeedMPH,WindSpeedGustMPH,Humidity,HourlyPrecipIn,Conditions,Clouds,dailyrainin,SoftwareType,DateUTC
2013-09-21 00:01:00,66.9,65.4,29.96,East,98,0.0,0.0,95,0.00,,OVC033,0.00,VWS V14.01,2013-09-21 04:01:00,
2013-09-21 00:06:00,66.8,65.3,29.96,East,98,0.0,0.0,95,0.00,,OVC033,0.00,VWS V14.01,2013-09-21 04:06:00,
2013-09-21 00:11:00,66.7,65.2,29.96,East,98,0.0,0.0,95,0.00,,OVC033,0.00,VWS V14.01,2013-09-21 04:11:00,
2013-09-21 00:16:00,66.6,65.1,29.97,East,98,0.0,0.0,95,0.00,,OVC033,0.00,VWS V14.01,2013-09-21 04:16:00,
2013-09-21 00:21:00,66.6,65.1,29.97,East,98,0.0,0.0,95,0.00,,OVC033,0.00,VWS V14.01,2013-09-21 04:21:00,
2013-09-21 00:26:00,66.5,65.0,29.97,East,98,0.0,0.0,95,0.00,,OVC033,0.00,VWS V14.01,2013-09-21 04:26:00,
2013-09-21 00:31:00,66.4,64.9,29.97,East,98,0.0,0.0,95,0.00,,OVC033,0.00,VWS V14.01,2013-09-21 04:31:00,
2013-09-21 00:36:00,66.4,64.9,29.97,East,98,0.0,0.0,95,0.00,,OVC033,0.00,VWS V14.01,2013-09-21 04:36:00,
2013-09-21 00:41:00,66.4,64.9,29.97,East,98,0.0,0.0,95,0.00,,OVC033,0.00,VWS V14.01,2013-09-21 04:41:00,
2013-09-21 00:51:00,66.4,64.9,29.97,East,98,0.0,0.0,95,0.00,,OVC033,0.00,VWS V14.01,2013-09-21 04:51:00,
2013-09-21 00:56:00,66.4,65.2,29.97,East,98,0.0,0.0,96,0.00,,OVC031,0.00,VWS V14.01,2013-09-21 04:56:00,
2013-09-21 01:01:00,66.4,65.2,29.97,East,98,0.0,0.0,96,0.00,,OVC031,0.00,VWS V14.01,2013-09-21 05:01:00,
2013-09-21 01:06:00,66.4,65.2,29.96,East,98,0.0,0.0,96,0.00,,OVC031,0.00,VWS V14.01,2013-09-21 05:06:00,
2013-09-21 01:11:00,66.3,65.1,29.96,East,98,0.0,0.0,96,0.00,,OVC031,0.00,VWS V14.01,2013-09-21 05:11:00,
2013-09-21 01:16:00,66.2,65.0,29.96,East,98,0.0,0.0,96,0.00,,OVC031,0.00,VWS V14.01,2013-09-21 05:16:00,
2013-09-21 01:21:00,66.2,65.0,29.96,East,98,0.0,0.0,96,0.00,,OVC031,0.00,VWS V14.01,2013-09-21 05:21:00,
2013-09-21 01:26:00,66.2,65.0,29.96,East,98,0.0,0.0,96,0.00,,OVC031,0.00,VWS V14.01,2013-09-21 05:26:00,
2013-09-21 01:31:00,66.1,64.9,29.96,East,98,0.0,0.0,96,0.00,,OVC031,0.00,VWS V14.01,2013-09-21 05:31:00,
2013-09-21 01:36:00,66.0,64.8,29.96,East,98,0.0,0.0,96,0.00,,OVC031,0.00,VWS V14.01,2013-09-21 05:36:00,
2013-09-21 01:46:00,66.0,64.8,29.96,East,98,0.0,0.0,96,0.00,,OVC031,0.00,VWS V14.01,2013-09-21 05:46:00,
2013-09-21 01:51:00,66.0,64.8,29.96,East,98,0.0,0.0,96,0.00,,OVC031,0.00,VWS V14.01,2013-09-21 05:51:00,
2013-09-21 01:56:00,66.0,64.8,29.96,East,98,0.0,0.0,96,0.00,,OVC030,0.00,VWS V14.01,2013-09-21 05:56:00,
2013-09-21 02:01:00,66.0,64.8,29.96,East,98,0.0,0.0,96,0.00,,OVC030,0.00,VWS V14.01,2013-09-21 06:01:00,
2013-09-21 02:06:00,66.0,64.8,29.96,East,98,0.0,0.0,96,0.00,,OVC030,0.00,VWS V14.01,2013-09-21 06:06:00,
2013-09-21 02:11:00,66.0,64.8,29.96,East,98,0.0,0.0,96,0.00,,OVC030,0.00,VWS V14.01,2013-09-21 06:11:00,
2013-09-21 02:16:00,66.1,64.9,29.95,SE,133,0.0,0.0,96,0.00,,OVC030,0.00,VWS V14.01,2013-09-21 06:16:00,
2013-09-21 02:21:00,66.1,64.9,29.95,SE,132,0.0,0.0,96,0.00,,OVC030,0.00,VWS V14.01,2013-09-21 06:21:00,
2013-09-21 02:26:00,66.2,64.7,29.95,ESE,107,0.0,0.0,95,0.00,,OVC030,0.00,VWS V14.01,2013-09-21 06:26:00,
2013-09-21 02:31:00,66.4,64.9,29.95,ESE,117,3.0,4.0,95,0.00,,OVC030,0.00,VWS V14.01,2013-09-21 06:31:00,
2013-09-21 02:36:00,66.4,64.9,29.95,SE,144,0.0,3.0,95,0.00,,OVC030,0.00,VWS V14.01,2013-09-21 06:36:00,
2013-09-21 02:41:00,66.5,65.0,29.95,ESE,112,0.0,2.0,95,0.00,,OVC030,0.00,VWS V14.01,2013-09-21 06:41:00,
2013-09-21 02:46:00,66.5,65.0,29.95,SE,142,0.0,0.0,95,0.00,,OVC030,0.00,VWS V14.01,2013-09-21 06:46:00,
2013-09-21 02:51:00,66.5,65.0,29.95,SE,141,0.0,0.0,95,0.00,,OVC030,0.00,VWS V14.01,2013-09-21 06:51:00,
2013-09-21 02:56:00,66.5,65.0,29.94,ESE,115,0.0,3.0,95,0.00,,OVC033,0.00,VWS V14.01,2013-09-21 06:56:00,
2013-09-21 03:01:00,66.6,65.1,29.94,SE,126,0.0,1.0,95,0.00,,OVC033,0.00,VWS V14.01,2013-09-21 07:01:00,
2013-09-21 03:06:00,66.5,65.0,29.94,SE,126,0.0,0.0,95,0.00,,OVC033,0.00,VWS V14.01,2013-09-21 07:06:00,
2013-09-21 03:11:00,66.6,65.1,29.94,SE,126,0.0,0.0,95,0.00,,OVC033,0.00,VWS V14.01,2013-09-21 07:11:00,
2013-09-21 03:16:00,66.5,65.0,29.94,SE,126,0.0,0.0,95,0.00,,OVC033,0.00,VWS V14.01,2013-09-21 07:16:00,
2013-09-21 03:21:00,66.5,65.0,29.94,SE,126,0.0,0.0,95,0.00,,OVC033,0.00,VWS V14.01,2013-09-21 07:21:00,
2013-09-21 03:26:00,66.4,64.9,29.94,SE,126,0.0,0.0,95,0.00,,OVC033,0.00,VWS V14.01,2013-09-21 07:26:00,
2013-09-21 03:31:00,66.5,65.0,29.94,East,89,1.0,1.0,95,0.00,,OVC033,0.00,VWS V14.01,2013-09-21 07:31:00,
2013-09-21 03:36:00,66.6,65.1,29.94,SSE,153,0.0,1.0,95,0.00,,OVC033,0.00,VWS V14.01,2013-09-21 07:36:00,
2013-09-21 03:41:00,66.6,65.1,29.94,ESE,112,0.0,2.0,95,0.00,,OVC033,0.00,VWS V14.01,2013-09-21 07:41:00,
2013-09-21 03:46:00,66.6,65.1,29.93,ESE,112,0.0,0.0,95,0.00,,OVC033,0.00,VWS V14.01,2013-09-21 07:46:00,
2013-09-21 03:51:00,66.6,65.1,29.93,ESE,112,0.0,0.0,95,0.00,,OVC033,0.00,VWS V14.01,2013-09-21 07:51:00,
2013-09-21 03:56:00,66.5,65.0,29.93,ESE,112,0.0,0.0,95,0.00,,OVC024,0.00,VWS V14.01,2013-09-21 07:56:00,
2013-09-21 04:01:00,66.5,65.3,29.93,ESE,112,0.0,0.0,96,0.00,,OVC024,0.00,VWS V14.01,2013-09-21 08:01:00,
2013-09-21 04:11:00,66.5,65.3,29.93,ESE,103,0.0,2.0,96,0.02,,OVC024,0.02,VWS V14.01,2013-09-21 08:11:00,
2013-09-21 04:16:00,66.4,65.2,29.93,SW,235,0.0,1.0,96,0.02,,OVC024,0.02,VWS V14.01,2013-09-21 08:16:00,
2013-09-21 04:21:00,66.4,65.2,29.93,SE,143,0.0,1.0,96,0.02,,OVC024,0.02,VWS V14.01,2013-09-21 08:21:00,
2013-09-21 04:26:00,66.4,65.2,29.93,ESE,113,0.0,1.0,96,0.02,,OVC024,0.02,VWS V14.01,2013-09-21 08:26:00,
2013-09-21 04:31:00,66.4,65.2,29.92,ESE,113,0.0,1.0,96,0.02,,OVC024,0.02,VWS V14.01,2013-09-21 08:31:00,
2013-09-21 04:36:00,66.3,65.1,29.92,ESE,120,0.0,1.0,96,0.02,,OVC024,0.02,VWS V14.01,2013-09-21 08:36:00,
2013-09-21 04:41:00,66.2,65.0,29.92,ESE,120,0.0,1.0,96,0.02,,OVC024,0.02,VWS V14.01,2013-09-21 08:41:00,
2013-09-21 04:46:00,66.2,65.0,29.92,ESE,104,0.0,4.0,96,0.02,,OVC024,0.02,VWS V14.01,2013-09-21 08:46:00,
2013-09-21 04:51:00,66.1,64.9,29.92,SE,127,0.0,4.0,96,0.02,,OVC024,0.02,VWS V14.01,2013-09-21 08:51:00,
2013-09-21 04:56:00,66.1,64.9,29.92,ESE,110,0.0,2.0,96,0.02,,OVC030,0.02,VWS V14.01,2013-09-21 08:56:00,
2013-09-21 05:01:00,66.1,65.2,29.92,ESE,110,0.0,1.0,97,0.02,,OVC030,0.02,VWS V14.01,2013-09-21 09:01:00,
2013-09-21 05:06:00,66.1,65.2,29.92,ESE,103,0.0,1.0,97,0.02,,OVC030,0.02,VWS V14.01,2013-09-21 09:06:00,
2013-09-21 05:11:00,66.0,65.1,29.92,ESE,116,0.0,1.0,97,0.02,,OVC030,0.02,VWS V14.01,2013-09-21 09:11:00,
2013-09-21 05:16:00,66.0,65.1,29.92,SE,125,1.0,3.0,97,0.00,,OVC030,0.02,VWS V14.01,2013-09-21 09:16:00,
2013-09-21 05:21:00,66.0,65.1,29.91,ESE,122,0.0,4.0,97,0.00,,OVC030,0.02,VWS V14.01,2013-09-21 09:21:00,
2013-09-21 05:26:00,66.0,65.1,29.91,ESE,111,4.0,4.0,97,0.00,,OVC030,0.02,VWS V14.01,2013-09-21 09:26:00,
2013-09-21 05:31:00,66.0,65.1,29.91,ESE,122,1.0,4.0,97,0.00,,OVC030,0.02,VWS V14.01,2013-09-21 09:31:00,
2013-09-21 05:36:00,66.0,65.1,29.91,SE,127,2.0,3.0,97,0.00,,OVC030,0.02,VWS V14.01,2013-09-21 09:36:00,
2013-09-21 05:41:00,66.0,65.1,29.91,SE,139,2.0,4.0,97,0.00,,OVC030,0.02,VWS V14.01,2013-09-21 09:41:00,
2013-09-21 05:46:00,66.0,65.1,29.91,East,91,4.0,5.0,97,0.00,,OVC030,0.02,VWS V14.01,2013-09-21 09:46:00,
2013-09-21 05:51:00,66.0,65.1,29.90,SE,133,0.0,5.0,97,0.00,,OVC030,0.02,VWS V14.01,2013-09-21 09:51:00,
2013-09-21 05:56:00,66.0,65.1,29.90,ESE,117,0.0,1.0,97,0.00,,OVC040,0.02,VWS V14.01,2013-09-21 09:56:00,
2013-09-21 06:01:00,66.0,65.1,29.90,SE,143,2.0,2.0,97,0.00,,OVC040,0.02,VWS V14.01,2013-09-21 10:01:00,
2013-09-21 06:11:00,66.0,65.1,29.90,SE,136,2.0,3.0,97,0.00,,OVC040,0.02,VWS V14.01,2013-09-21 10:11:00,
2013-09-21 06:16:00,66.0,65.1,29.90,SSE,149,0.0,5.0,97,0.00,,OVC040,0.02,VWS V14.01,2013-09-21 10:16:00,
2013-09-21 06:21:00,66.0,65.1,29.90,SE,135,1.0,2.0,97,0.00,,OVC040,0.02,VWS V14.01,2013-09-21 10:21:00,
2013-09-21 06:26:00,66.0,65.1,29.90,ESE,120,0.0,2.0,97,0.00,,OVC040,0.02,VWS V14.01,2013-09-21 10:26:00,
2013-09-21 06:31:00,66.0,65.1,29.90,ESE,122,0.0,1.0,97,0.00,,OVC040,0.02,VWS V14.01,2013-09-21 10:31:00,
2013-09-21 06:36:00,66.0,65.1,29.90,ESE,122,0.0,0.0,97,0.00,,OVC040,0.02,VWS V14.01,2013-09-21 10:36:00,
2013-09-21 06:41:00,66.0,65.1,29.90,SW,229,0.0,0.0,97,0.00,,OVC028,0.02,VWS V14.01,2013-09-21 10:41:00,
2013-09-21 06:46:00,66.0,65.1,29.90,ESE,119,0.0,2.0,97,0.00,,OVC028,0.02,VWS V14.01,2013-09-21 10:46:00,
2013-09-21 06:51:00,66.0,65.1,29.90,ESE,119,0.0,0.0,97,0.00,,OVC028,0.02,VWS V14.01,2013-09-21 10:51:00,
2013-09-21 06:56:00,66.0,65.1,29.90,ESE,119,0.0,0.0,97,0.00,,OVC025,0.02,VWS V14.01,2013-09-21 10:56:00,
2013-09-21 07:01:00,66.0,65.1,29.90,SSW,212,0.0,1.0,97,0.00,,OVC025,0.02,VWS V14.01,2013-09-21 11:01:00,
2013-09-21 07:06:00,66.1,65.2,29.89,SE,125,0.0,1.0,97,0.00,,OVC025,0.02,VWS V14.01,2013-09-21 11:06:00,
2013-09-21 07:11:00,66.1,65.2,29.90,SE,125,0.0,1.0,97,0.00,,OVC025,0.02,VWS V14.01,2013-09-21 11:11:00,
2013-09-21 07:16:00,66.1,65.2,29.90,SE,125,0.0,0.0,97,0.00,,OVC025,0.02,VWS V14.01,2013-09-21 11:16:00,
2013-09-21 07:21:00,66.1,65.2,29.90,SE,125,0.0,0.0,97,0.00,,OVC025,0.02,VWS V14.01,2013-09-21 11:21:00,
2013-09-21 07:26:00,66.2,65.3,29.90,SE,125,0.0,1.0,97,0.00,,OVC025,0.02,VWS V14.01,2013-09-21 11:26:00,
2013-09-21 07:31:00,66.2,65.3,29.90,SE,125,0.0,0.0,97,0.00,,OVC025,0.02,VWS V14.01,2013-09-21 11:31:00,
2013-09-21 07:41:00,66.2,65.3,29.90,East,96,0.0,2.0,97,0.00,,OVC025,0.02,VWS V14.01,2013-09-21 11:41:00,
2013-09-21 07:46:00,66.3,65.4,29.90,SSE,154,0.0,0.0,97,0.00,,OVC025,0.02,VWS V14.01,2013-09-21 11:46:00,
2013-09-21 07:51:00,66.3,65.4,29.90,ESE,103,0.0,2.0,97,0.00,,OVC025,0.02,VWS V14.01,2013-09-21 11:51:00,
2013-09-21 07:56:00,66.4,65.5,29.90,ESE,110,2.0,2.0,97,0.00,,OVC022,0.02,VWS V14.01,2013-09-21 11:56:00,
2013-09-21 08:01:00,66.4,65.5,29.90,ESE,110,0.0,2.0,97,0.00,,OVC022,0.02,VWS V14.01,2013-09-21 12:01:00,
2013-09-21 08:11:00,66.5,65.6,29.90,ESE,105,0.0,2.0,97,0.00,,OVC022,0.02,VWS V14.01,2013-09-21 12:11:00,
2013-09-21 08:16:00,66.6,65.7,29.90,SE,129,0.0,1.0,97,0.00,,OVC022,0.02,VWS V14.01,2013-09-21 12:16:00,
2013-09-21 08:21:00,66.6,65.7,29.90,SE,129,0.0,0.0,97,0.00,,OVC022,0.02,VWS V14.01,2013-09-21 12:21:00,
2013-09-21 08:26:00,66.7,65.8,29.90,SE,134,0.0,1.0,97,0.00,,OVC022,0.02,VWS V14.01,2013-09-21 12:26:00,
2013-09-21 08:31:00,66.8,65.9,29.90,SSW,207,0.0,1.0,97,0.00,,OVC022,0.02,VWS V14.01,2013-09-21 12:31:00,
2013-09-21 08:36:00,66.9,66.0,29.89,SSW,206,0.0,0.0,97,0.00,,OVC022,0.02,VWS V14.01,2013-09-21 12:36:00,
2013-09-21 08:41:00,67.1,66.2,29.89,SSW,206,0.0,0.0,97,0.00,,OVC022,0.02,VWS V14.01,2013-09-21 12:41:00,
2013-09-21 08:46:00,67.1,66.2,29.89,ESE,105,0.0,1.0,97,0.00,,OVC022,0.02,VWS V14.01,2013-09-21 12:46:00,
2013-09-21 08:51:00,67.2,66.3,29.89,SSW,208,0.0,1.0,97,0.00,,OVC022,0.02,VWS V14.01,2013-09-21 12:51:00,
2013-09-21 08:56:00,67.4,66.5,29.89,East,93,1.0,2.0,97,0.00,,OVC022,0.02,VWS V14.01,2013-09-21 12:56:00,
2013-09-21 09:01:00,67.5,66.3,29.89,South,172,1.0,2.0,96,0.00,,OVC022,0.02,VWS V14.01,2013-09-21 13:01:00,
2013-09-21 09:11:00,67.9,66.4,29.89,ENE,76,2.0,3.0,95,0.00,,OVC022,0.02,VWS V14.01,2013-09-21 13:11:00,
2013-09-21 09:16:00,68.1,66.6,29.89,SE,141,0.0,2.0,95,0.00,,OVC022,0.02,VWS V14.01,2013-09-21 13:16:00,
2013-09-21 09:21:00,68.3,66.8,29.89,East,99,2.0,3.0,95,0.00,,OVC022,0.02,VWS V14.01,2013-09-21 13:21:00,
2013-09-21 09:26:00,68.4,66.6,29.89,ESE,105,1.0,4.0,94,0.00,,OVC022,0.02,VWS V14.01,2013-09-21 13:26:00,
2013-09-21 09:31:00,68.4,66.6,29.89,ESE,110,1.0,5.0,94,0.00,,OVC022,0.02,VWS V14.01,2013-09-21 13:31:00,
2013-09-21 09:36:00,68.6,66.5,29.89,SE,136,1.0,4.0,93,0.00,,OVC022,0.02,VWS V14.01,2013-09-21 13:36:00,
2013-09-21 09:41:00,68.8,66.7,29.89,SSW,205,2.0,4.0,93,0.00,,OVC022,0.02,VWS V14.01,2013-09-21 13:41:00,
2013-09-21 09:46:00,69.1,67.0,29.89,SW,229,0.0,4.0,93,0.00,,OVC022,0.02,VWS V14.01,2013-09-21 13:46:00,
2013-09-21 09:51:00,69.5,67.4,29.89,SSW,195,0.0,2.0,93,0.00,,OVC022,0.02,VWS V14.01,2013-09-21 13:51:00,
2013-09-21 09:56:00,69.7,67.3,29.89,East,101,4.0,6.0,92,0.00,,OVC022,0.02,VWS V14.01,2013-09-21 13:56:00,
2013-09-21 10:01:00,69.9,67.5,29.89,ESE,110,5.0,6.0,92,0.00,,OVC022,0.02,VWS V14.01,2013-09-21 14:01:00,
2013-09-21 10:11:00,70.3,67.6,29.89,ESE,119,1.0,5.0,91,0.00,,OVC022,0.02,VWS V14.01,2013-09-21 14:11:00,
2013-09-21 10:16:00,70.6,67.5,29.89,SE,134,1.0,6.0,90,0.00,,OVC022,0.02,VWS V14.01,2013-09-21 14:16:00,
2013-09-21 10:21:00,70.7,67.9,29.89,SE,135,1.0,6.0,91,0.00,,OVC022,0.02,VWS V14.01,2013-09-21 14:21:00,
2013-09-21 10:26:00,70.9,67.8,29.89,East,97,3.0,6.0,90,0.00,,OVC022,0.02,VWS V14.01,2013-09-21 14:26:00,
2013-09-21 10:31:00,71.1,68.0,29.89,South,188,0.0,4.0,90,0.00,,OVC022,0.02,VWS V14.01,2013-09-21 14:31:00,
2013-09-21 10:36:00,71.5,68.4,29.89,South,184,2.0,3.0,90,0.00,,OVC022,0.02,VWS V14.01,2013-09-21 14:36:00,
2013-09-21 10:41:00,71.6,68.2,29.89,ESE,122,1.0,5.0,89,0.00,,OVC022,0.02,VWS V14.01,2013-09-21 14:41:00,
2013-09-21 10:46:00,71.6,68.2,29.89,SE,136,1.0,6.0,89,0.00,,OVC022,0.02,VWS V14.01,2013-09-21 14:46:00,
2013-09-21 10:51:00,71.7,68.3,29.89,ESE,104,4.0,4.0,89,0.00,,OVC022,0.02,VWS V14.01,2013-09-21 14:51:00,
2013-09-21 10:56:00,71.6,68.2,29.88,South,178,1.0,7.0,89,0.00,,OVC022,0.02,VWS V14.01,2013-09-21 14:56:00,
2013-09-21 11:01:00,71.4,68.0,29.88,SE,141,3.0,4.0,89,0.00,,OVC022,0.02,VWS V14.01,2013-09-21 15:01:00,
2013-09-21 11:11:00,71.4,68.3,29.88,SE,129,2.0,7.0,90,0.00,,OVC022,0.02,VWS V14.01,2013-09-21 15:11:00,
2013-09-21 11:16:00,71.4,68.0,29.88,SE,143,1.0,7.0,89,0.00,,OVC022,0.02,VWS V14.01,2013-09-21 15:16:00,
2013-09-21 11:21:00,71.5,68.1,29.87,ESE,108,1.0,7.0,89,0.00,,OVC022,0.02,VWS V14.01,2013-09-21 15:21:00,
2013-09-21 11:26:00,72.0,68.6,29.87,ESE,114,2.0,3.0,89,0.00,,OVC022,0.02,VWS V14.01,2013-09-21 15:26:00,
2013-09-21 11:31:00,72.1,68.7,29.87,SSE,155,0.0,6.0,89,0.00,,OVC022,0.02,VWS V14.01,2013-09-21 15:31:00,
2013-09-21 11:36:00,72.2,68.4,29.87,SSW,208,1.0,5.0,88,0.00,,OVC022,0.02,VWS V14.01,2013-09-21 15:36:00,
2013-09-21 11:41:00,72.4,68.7,29.87,SE,130,0.0,3.0,88,0.00,,OVC022,0.02,VWS V14.01,2013-09-21 15:41:00,
2013-09-21 11:46:00,72.4,68.3,29.86,WSW,244,1.0,7.0,87,0.00,,OVC022,0.02,VWS V14.01,2013-09-21 15:46:00,
2013-09-21 11:51:00,72.5,68.4,29.86,ESE,121,2.0,5.0,87,0.00,,OVC022,0.02,VWS V14.01,2013-09-21 15:51:00,
2013-09-21 11:56:00,72.4,68.3,29.86,ESE,115,5.0,8.0,87,0.00,,OVC070,0.02,VWS V14.01,2013-09-21 15:56:00,
2013-09-21 12:01:00,72.4,68.3,29.85,SE,136,2.0,6.0,87,0.00,,OVC070,0.02,VWS V14.01,2013-09-21 16:01:00,
2013-09-21 12:11:00,72.9,68.8,29.85,SE,141,1.0,2.0,87,0.00,,OVC070,0.02,VWS V14.01,2013-09-21 16:11:00,
2013-09-21 12:16:00,73.2,69.1,29.85,SE,134,0.0,3.0,87,0.00,,OVC070,0.02,VWS V14.01,2013-09-21 16:16:00,
2013-09-21 12:21:00,73.2,68.8,29.85,SE,139,1.0,5.0,86,0.00,,OVC070,0.02,VWS V14.01,2013-09-21 16:21:00,
2013-09-21 12:26:00,73.4,69.0,29.85,SW,219,2.0,5.0,86,0.00,,OVC070,0.02,VWS V14.01,2013-09-21 16:26:00,
2013-09-21 12:31:00,73.3,68.5,29.84,East,89,3.0,8.0,85,0.00,,OVC070,0.02,VWS V14.01,2013-09-21 16:31:00,
2013-09-21 12:36:00,73.3,68.9,29.84,SSE,164,4.0,5.0,86,0.00,,OVC070,0.02,VWS V14.01,2013-09-21 16:36:00,
2013-09-21 12:41:00,73.5,68.7,29.84,ESE,103,4.0,5.0,85,0.00,,OVC070,0.02,VWS V14.01,2013-09-21 16:41:00,
2013-09-21 12:46:00,73.6,68.8,29.84,SE,137,1.0,5.0,85,0.00,,OVC070,0.02,VWS V14.01,2013-09-21 16:46:00,
2013-09-21 12:51:00,73.7,68.6,29.84,South,172,1.0,6.0,84,0.00,,OVC070,0.02,VWS V14.01,2013-09-21 16:51:00,
2013-09-21 13:01:00,74.9,69.4,29.83,ESE,103,4.0,5.0,83,0.00,,BKN017,0.02,VWS V14.01,2013-09-21 17:01:00,
2013-09-21 13:11:00,75.2,69.0,29.83,SSE,147,1.0,5.0,81,0.00,,BKN017,0.02,VWS V14.01,2013-09-21 17:11:00,
2013-09-21 13:16:00,75.2,69.3,29.83,South,186,1.0,3.0,82,0.00,,BKN017,0.02,VWS V14.01,2013-09-21 17:16:00,
2013-09-21 13:21:00,75.3,69.4,29.83,ESE,115,0.0,4.0,82,0.00,,BKN017,0.02,VWS V14.01,2013-09-21 17:21:00,
2013-09-21 13:31:00,75.4,69.5,29.82,ESE,105,3.0,4.0,82,0.00,,BKN017,0.02,VWS V14.01,2013-09-21 17:31:00,
2013-09-21 13:41:00,75.0,69.5,29.82,SE,139,0.0,5.0,83,0.00,,BKN017,0.02,VWS V14.01,2013-09-21 17:41:00,
2013-09-21 13:46:00,74.9,69.7,29.81,ESE,104,1.0,4.0,84,0.00,,BKN017,0.02,VWS V14.01,2013-09-21 17:46:00,
2013-09-21 13:51:00,74.9,69.7,29.81,ESE,108,2.0,3.0,84,0.00,,BKN017,0.02,VWS V14.01,2013-09-21 17:51:00,
2013-09-21 13:56:00,74.9,69.7,29.81,SSW,212,4.0,4.0,84,0.00,,OVC050,0.02,VWS V14.01,2013-09-21 17:56:00,
2013-09-21 14:01:00,75.0,69.8,29.80,ESE,103,2.0,5.0,84,0.00,,OVC050,0.02,VWS V14.01,2013-09-21 18:01:00,
2013-09-21 14:06:00,75.0,69.8,29.80,ESE,115,1.0,4.0,84,0.00,,OVC050,0.02,VWS V14.01,2013-09-21 18:06:00,
2013-09-21 14:16:00,75.5,70.0,29.80,SW,228,1.0,3.0,83,0.00,,OVC100,0.02,VWS V14.01,2013-09-21 18:16:00,
2013-09-21 14:21:00,75.8,70.3,29.79,SW,222,1.0,4.0,83,0.00,,OVC100,0.02,VWS V14.01,2013-09-21 18:21:00,
2013-09-21 14:26:00,76.1,70.6,29.79,WNW,285,0.0,4.0,83,0.00,,OVC100,0.02,VWS V14.01,2013-09-21 18:26:00,
2013-09-21 14:31:00,76.4,70.9,29.79,West,266,0.0,2.0,83,0.00,,OVC100,0.02,VWS V14.01,2013-09-21 18:31:00,
2013-09-21 14:36:00,76.6,70.3,29.78,SE,144,1.0,5.0,81,0.00,,OVC050,0.02,VWS V14.01,2013-09-21 18:36:00,
2013-09-21 14:41:00,76.6,70.3,29.78,SE,146,2.0,6.0,81,0.00,,OVC050,0.02,VWS V14.01,2013-09-21 18:41:00,
2013-09-21 14:51:00,76.9,71.0,29.78,ESE,103,1.0,4.0,82,0.00,,OVC050,0.02,VWS V14.01,2013-09-21 18:51:00,
2013-09-21 14:56:00,77.0,70.7,29.78,WSW,255,1.0,3.0,81,0.00,,OVC055,0.02,VWS V14.01,2013-09-21 18:56:00,
2013-09-21 15:01:00,77.1,71.2,29.77,SSE,156,0.0,4.0,82,0.00,,OVC055,0.02,VWS V14.01,2013-09-21 19:01:00,
2013-09-21 15:06:00,77.1,70.8,29.77,ESE,115,1.0,4.0,81,0.00,,OVC055,0.02,VWS V14.01,2013-09-21 19:06:00,
2013-09-21 15:11:00,77.2,70.9,29.77,East,93,2.0,5.0,81,0.00,,OVC055,0.02,VWS V14.01,2013-09-21 19:11:00,
2013-09-21 15:21:00,77.2,71.3,29.76,ESE,118,1.0,5.0,82,0.00,,OVC055,0.02,VWS V14.01,2013-09-21 19:21:00,
2013-09-21 15:31:00,77.4,71.1,29.76,ESE,103,3.0,4.0,81,0.00,,OVC055,0.02,VWS V14.01,2013-09-21 19:31:00,
2013-09-21 15:36:00,77.4,71.1,29.76,SE,129,1.0,4.0,81,0.00,,OVC055,0.02,VWS V14.01,2013-09-21 19:36:00,
2013-09-21 15:41:00,77.2,70.9,29.76,ESE,110,4.0,6.0,81,0.00,,OVC055,0.02,VWS V14.01,2013-09-21 19:41:00,
2013-09-21 15:46:00,77.0,71.1,29.75,SE,125,2.0,4.0,82,0.00,,OVC055,0.02,VWS V14.01,2013-09-21 19:46:00,
2013-09-21 15:56:00,76.8,71.2,29.75,ESE,110,1.0,3.0,83,0.00,,OVC150,0.02,VWS V14.01,2013-09-21 19:56:00,
2013-09-21 16:01:00,76.6,71.1,29.75,SE,141,1.0,4.0,83,0.00,,OVC150,0.02,VWS V14.01,2013-09-21 20:01:00,
2013-09-21 16:11:00,76.5,71.3,29.75,SSW,212,0.0,1.0,84,0.00,,OVC150,0.02,VWS V14.01,2013-09-21 20:11:00,
2013-09-21 16:16:00,76.3,71.1,29.75,SE,126,0.0,4.0,84,0.00,,OVC150,0.02,VWS V14.01,2013-09-21 20:16:00,
2013-09-21 16:21:00,76.2,71.0,29.75,ESE,105,2.0,3.0,84,0.00,,OVC150,0.02,VWS V14.01,2013-09-21 20:21:00,
2013-09-21 16:31:00,76.1,71.3,29.74,ESE,111,0.0,1.0,85,0.00,,OVC150,0.02,VWS V14.01,2013-09-21 20:31:00,
2013-09-21 16:36:00,75.9,71.1,29.74,SE,131,0.0,3.0,85,0.00,,OVC150,0.02,VWS V14.01,2013-09-21 20:36:00,
2013-09-21 16:41:00,75.9,71.4,29.74,ESE,102,2.0,2.0,86,0.00,,OVC150,0.02,VWS V14.01,2013-09-21 20:41:00,
2013-09-21 16:46:00,75.7,71.2,29.74,SE,129,0.0,2.0,86,0.00,,OVC150,0.02,VWS V14.01,2013-09-21 20:46:00,
2013-09-21 16:56:00,75.5,71.0,29.74,East,99,1.0,3.0,86,0.00,,-RA,0.02,VWS V14.01,2013-09-21 20:56:00,
2013-09-21 17:06:00,75.4,71.3,29.73,SSE,147,0.0,1.0,87,0.00,,-RA,0.02,VWS V14.01,2013-09-21 21:06:00,
2013-09-21 17:11:00,75.3,71.2,29.73,ESE,121,1.0,4.0,87,0.00,,-RA,0.02,VWS V14.01,2013-09-21 21:11:00,
2013-09-21 17:26:00,75.1,71.3,29.73,ESE,121,0.0,0.0,88,0.00,,-RA,0.02,VWS V14.01,2013-09-21 21:26:00,
2013-09-21 17:31:00,75.0,71.2,29.73,ESE,121,0.0,0.0,88,0.00,,-RA,0.02,VWS V14.01,2013-09-21 21:31:00,
2013-09-21 17:36:00,74.9,71.4,29.73,ESE,121,0.0,0.0,89,0.00,,-RA,0.02,VWS V14.01,2013-09-21 21:36:00,
2013-09-21 17:41:00,74.7,71.2,29.73,ESE,121,1.0,1.0,89,0.00,,-RA,0.02,VWS V14.01,2013-09-21 21:41:00,
2013-09-21 17:46:00,74.5,71.4,29.73,ESE,122,0.0,1.0,90,0.00,,-RA,0.02,VWS V14.01,2013-09-21 21:46:00,
2013-09-21 17:51:00,74.3,71.2,29.73,ESE,122,0.0,1.0,90,0.00,,-RA,0.02,VWS V14.01,2013-09-21 21:51:00,
2013-09-21 17:56:00,74.1,71.3,29.73,ESE,122,0.0,1.0,91,0.00,,-RA,0.02,VWS V14.01,2013-09-21 21:56:00,
2013-09-21 18:01:00,74.0,71.2,29.73,SE,124,0.0,1.0,91,0.01,,-RA,0.03,VWS V14.01,2013-09-21 22:01:00,
2013-09-21 18:11:00,73.5,71.4,29.72,ESE,120,0.0,1.0,93,0.03,,-RA,0.05,VWS V14.01,2013-09-21 22:11:00,
2013-09-21 18:16:00,73.3,71.5,29.72,ESE,117,0.0,2.0,94,0.04,,-RA,0.06,VWS V14.01,2013-09-21 22:16:00,
2013-09-21 18:21:00,73.1,71.3,29.72,SE,130,0.0,2.0,94,0.05,,-RA,0.07,VWS V14.01,2013-09-21 22:21:00,
2013-09-21 18:31:00,72.8,71.3,29.73,West,276,0.0,6.0,95,0.15,,-RA,0.17,VWS V14.01,2013-09-21 22:31:00,
2013-09-21 18:41:00,72.7,71.2,29.72,South,186,2.0,5.0,95,0.20,,,0.22,VWS V14.01,2013-09-21 22:41:00,
2013-09-21 18:51:00,72.8,71.0,29.73,WSW,241,1.0,4.0,94,0.20,,,0.22,VWS V14.01,2013-09-21 22:51:00,
2013-09-21 19:01:00,72.7,70.9,29.73,West,269,0.0,3.0,94,0.20,,-RA,0.22,VWS V14.01,2013-09-21 23:01:00,
2013-09-21 19:06:00,72.6,70.8,29.73,SSW,196,0.0,0.0,94,0.20,,-RA,0.23,VWS V14.01,2013-09-21 23:06:00,
2013-09-21 19:11:00,72.5,71.0,29.73,SW,231,0.0,1.0,95,0.19,,-RA,0.23,VWS V14.01,2013-09-21 23:11:00,
2013-09-21 19:16:00,72.4,70.9,29.73,SW,231,0.0,1.0,95,0.18,,-RA,0.23,VWS V14.01,2013-09-21 23:16:00,
2013-09-21 19:26:00,72.2,70.7,29.73,SW,231,0.0,0.0,95,0.16,,-RA,0.23,VWS V14.01,2013-09-21 23:26:00,
2013-09-21 19:31:00,72.1,70.9,29.73,SW,231,0.0,1.0,96,0.15,,-RA,0.23,VWS V14.01,2013-09-21 23:31:00,
2013-09-21 19:36:00,72.2,71.0,29.73,SW,231,0.0,0.0,96,0.06,,-RA,0.23,VWS V14.01,2013-09-21 23:36:00,
2013-09-21 19:46:00,72.2,71.0,29.73,ESE,109,1.0,2.0,96,0.05,,-RA,0.27,VWS V14.01,2013-09-21 23:46:00,
2013-09-21 19:51:00,72.2,71.0,29.72,SE,131,0.0,2.0,96,0.06,,-RA,0.28,VWS V14.01,2013-09-21 23:51:00,
2013-09-21 19:56:00,72.1,70.9,29.72,SE,131,0.0,0.0,96,0.06,,,0.28,VWS V14.01,2013-09-21 23:56:00,
2013-09-21 20:01:00,72.0,70.8,29.73,SE,131,0.0,0.0,96,0.06,,,0.28,VWS V14.01,2013-09-22 00:01:00,
2013-09-21 20:06:00,72.0,71.1,29.73,SE,131,0.0,0.0,97,0.06,,,0.28,VWS V14.01,2013-09-22 00:06:00,
2013-09-21 20:11:00,71.9,71.0,29.73,SE,131,0.0,0.0,97,0.05,,,0.28,VWS V14.01,2013-09-22 00:11:00,
2013-09-21 20:16:00,71.8,70.9,29.73,SE,131,0.0,0.0,97,0.05,,,0.28,VWS V14.01,2013-09-22 00:16:00,
2013-09-21 20:26:00,71.8,70.9,29.73,SE,131,0.0,0.0,97,0.05,,,0.28,VWS V14.01,2013-09-22 00:26:00,
2013-09-21 20:36:00,71.6,70.7,29.73,SE,131,0.0,0.0,97,0.05,,,0.28,VWS V14.01,2013-09-22 00:36:00,
2013-09-21 20:41:00,71.6,70.7,29.73,SE,131,0.0,0.0,97,0.05,,,0.28,VWS V14.01,2013-09-22 00:41:00,
2013-09-21 20:51:00,71.6,70.7,29.74,SE,131,0.0,0.0,97,0.01,,,0.28,VWS V14.01,2013-09-22 00:51:00,
2013-09-21 21:01:00,71.5,70.6,29.74,SE,131,0.0,0.0,97,0.01,,,0.29,VWS V14.01,2013-09-22 01:01:00,
2013-09-21 21:11:00,71.6,70.7,29.74,SE,131,1.0,1.0,97,0.01,,,0.29,VWS V14.01,2013-09-22 01:11:00,
2013-09-21 21:21:00,71.9,71.3,29.73,SE,129,0.0,1.0,98,0.01,,,0.29,VWS V14.01,2013-09-22 01:21:00,
2013-09-21 21:26:00,71.9,71.3,29.74,SE,129,0.0,1.0,98,0.01,,,0.29,VWS V14.01,2013-09-22 01:26:00,
2013-09-21 21:36:00,71.9,71.3,29.73,SSE,151,0.0,1.0,98,0.02,,,0.30,VWS V14.01,2013-09-22 01:36:00,
2013-09-21 21:41:00,71.9,71.3,29.73,East,96,0.0,1.0,98,0.02,,,0.30,VWS V14.01,2013-09-22 01:41:00,
2013-09-21 21:51:00,71.9,71.3,29.74,West,261,1.0,2.0,98,0.03,,,0.31,VWS V14.01,2013-09-22 01:51:00,
2013-09-21 22:01:00,71.9,71.0,29.74,West,262,0.0,1.0,97,0.06,,-RA,0.35,VWS V14.01,2013-09-22 02:01:00,
2013-09-21 22:11:00,71.8,70.9,29.74,SSW,205,0.0,1.0,97,0.10,,-RA,0.39,VWS V14.01,2013-09-22 02:11:00,
2013-09-21 22:16:00,71.8,70.9,29.74,SSW,211,0.0,1.0,97,0.11,,-RA,0.40,VWS V14.01,2013-09-22 02:16:00,
2013-09-21 22:21:00,71.7,70.8,29.74,SSW,211,0.0,0.0,97,0.11,,-RA,0.40,VWS V14.01,2013-09-22 02:21:00,
2013-09-21 22:31:00,71.7,70.8,29.74,SSW,211,0.0,1.0,97,0.12,,-RA,0.41,VWS V14.01,2013-09-22 02:31:00,
2013-09-21 22:36:00,71.7,70.8,29.73,ESE,123,0.0,1.0,97,0.12,,-RA,0.41,VWS V14.01,2013-09-22 02:36:00,
2013-09-21 22:41:00,71.6,70.7,29.73,SE,136,0.0,1.0,97,0.11,,-RA,0.41,VWS V14.01,2013-09-22 02:41:00,
2013-09-21 22:51:00,71.6,70.7,29.73,East,98,0.0,2.0,97,0.12,,-RA,0.42,VWS V14.01,2013-09-22 02:51:00,
2013-09-21 23:01:00,71.5,70.6,29.73,East,98,0.0,1.0,97,0.09,,-RA,0.42,VWS V14.01,2013-09-22 03:01:00,
2013-09-21 23:11:00,71.5,70.6,29.73,WSW,245,1.0,2.0,97,0.11,,-RA,0.49,VWS V14.01,2013-09-22 03:11:00,
2013-09-21 23:16:00,71.2,70.3,29.72,WSW,251,0.0,2.0,97,0.11,,-RA,0.50,VWS V14.01,2013-09-22 03:16:00,
2013-09-21 23:21:00,71.1,70.2,29.73,SE,140,1.0,1.0,97,0.11,, +RA,0.51,VWS V14.01,2013-09-22 03:21:00,
2013-09-21 23:26:00,70.9,70.0,29.73,ESE,110,1.0,2.0,97,0.11,, +RA,0.51,VWS V14.01,2013-09-22 03:26:00,
2013-09-21 23:31:00,70.7,69.5,29.73,East,93,0.0,2.0,96,0.10,, +RA,0.51,VWS V14.01,2013-09-22 03:31:00,
2013-09-21 23:41:00,70.4,69.5,29.73,ESE,123,0.0,0.0,97,0.10,,-RA,0.51,VWS V14.01,2013-09-22 03:41:00,
2013-09-21 23:46:00,70.3,69.4,29.73,ESE,123,0.0,0.0,97,0.10,,-RA,0.51,VWS V14.01,2013-09-22 03:46:00,
2013-09-21 23:51:00,70.2,69.3,29.73,ESE,123,0.0,0.0,97,0.11,,-RA,0.52,VWS V14.01,2013-09-22 03:51:00,
2013-09-21 23:56:00,70.1,69.2,29.73,ESE,123,0.0,0.0,97,0.11,,RA,0.53,VWS V14.01,2013-09-22 03:56:00,